KPTW/PTW METAR and TAF weather

Enter ICAO airport designator
Station Type Date Time Source
KPTW METAR 2022/06/30 01:54 UTC NOAA

KPTW 300154Z AUTO 21005KT 10SM CLR 23/17 A3021 RMK AO2 SLP227 T02330167


Station Type Date Time Source
KPTW Decoded METAR 2022/06/30 01:54 UTC NOAA

POTTSTOWN LIMERICK AIRPORT, PA, United States (KPTW) 40-14N 075-33W 89M
Jun 29, 2022 - 09:54 PM EDT / 2022.06.30 0154 UTC
Wind: from the SSW (210 degrees) at 6 MPH (5 KT):0
Visibility: 10 mile(s):0
Sky conditions: clear
Temperature: 73.9 F (23.3 C)
Dew Point: 62.1 F (16.7 C)
Relative Humidity: 66%
Pressure (altimeter): 30.21 in. Hg (1023 hPa)
ob: KPTW 300154Z AUTO 21005KT 10SM CLR 23/17 A3021 RMK AO2 SLP227 T02330167
cycle: 2

Station Type Date Time Source
KPTW TAF UTC NOAA

Error!

Example: see airport list